Time;durP1;ratioP1;P1;durP2;ratioP2;P2;SDS_P1;SDS_P2;PMS_P1;PMS_P2;Temp;Humidity;BMP_temperature;BMP_pressure;BME280_temperature;BME280_humidity;BME280_pressure;Samples;Min_cycle;Max_cycle;Signal;HPM_P1;HPM_P2
2020/12/15 00:01:28;;;;;;;1.92;1.35;;;24.50;63.50;;;;;;4162683;28;20033;-52
2020/12/15 00:03:30;;;;;;;1.52;1.10;;;24.50;63.60;;;;;;4163516;28;20041;-52
2020/12/15 00:05:32;;;;;;;2.17;1.10;;;24.50;63.40;;;;;;4162881;28;20148;-46
2020/12/15 00:07:34;;;;;;;2.28;1.10;;;24.50;63.20;;;;;;4171784;28;20467;-49
2020/12/15 00:09:36;;;;;;;2.20;1.08;;;24.50;63.50;;;;;;4169878;28;20571;-46
2020/12/15 00:11:38;;;;;;;3.20;1.17;;;24.50;63.50;;;;;;4158608;28;20033;-49
2020/12/15 00:13:41;;;;;;;1.77;1.10;;;24.50;63.40;;;;;;4165955;28;20079;-46
2020/12/15 00:15:43;;;;;;;3.15;1.10;;;24.50;63.40;;;;;;4168802;28;20072;-51
2020/12/15 00:17:45;;;;;;;3.28;1.17;;;24.50;64.00;;;;;;4167859;28;20052;-50
2020/12/15 00:19:47;;;;;;;3.65;1.40;;;24.60;64.10;;;;;;4163980;28;20103;-51
2020/12/15 00:21:49;;;;;;;2.47;1.05;;;24.60;63.80;;;;;;4171522;28;20095;-47
2020/12/15 00:23:52;;;;;;;5.65;1.52;;;24.60;64.20;;;;;;4161234;28;20149;-49
2020/12/15 00:25:55;;;;;;;2.72;1.55;;;24.60;64.00;;;;;;4167446;28;20029;-49
2020/12/15 00:27:57;;;;;;;4.10;1.45;;;24.60;63.80;;;;;;4160366;28;20060;-52
2020/12/15 00:29:59;;;;;;;2.58;1.20;;;24.60;64.00;;;;;;4166291;28;20037;-55
2020/12/15 00:32:01;;;;;;;2.83;1.35;;;24.60;63.70;;;;;;4161729;28;20124;-51
2020/12/15 00:34:04;;;;;;;3.80;1.65;;;24.60;64.60;;;;;;4166904;28;20510;-51
2020/12/15 00:36:07;;;;;;;3.42;1.55;;;24.60;64.40;;;;;;4162958;28;20103;-49
2020/12/15 00:38:09;;;;;;;4.28;1.83;;;24.60;64.20;;;;;;4163826;28;20030;-47
2020/12/15 00:40:11;;;;;;;2.90;1.52;;;24.60;64.20;;;;;;4165212;28;20037;-49
2020/12/15 00:42:13;;;;;;;3.70;1.63;;;24.60;63.70;;;;;;4158114;28;20055;-50
2020/12/15 00:44:15;;;;;;;4.30;1.55;;;24.60;64.00;;;;;;4171719;28;20026;-51
2020/12/15 00:46:18;;;;;;;5.07;1.88;;;24.60;64.20;;;;;;4157800;28;20387;-47
2020/12/15 00:48:20;;;;;;;3.67;1.60;;;24.60;64.30;;;;;;4166423;28;20416;-47
2020/12/15 00:50:22;;;;;;;2.85;1.38;;;24.60;64.20;;;;;;4162746;28;20271;-48
2020/12/15 00:52:30;;;;;;;6.63;1.77;;;24.70;64.20;;;;;;4170866;28;20043;-45
2020/12/15 00:54:32;;;;;;;5.85;2.03;;;24.70;64.40;;;;;;4162002;28;20037;-46
2020/12/15 00:56:34;;;;;;;4.95;1.65;;;24.70;64.40;;;;;;4168623;28;20041;-46
2020/12/15 00:58:36;;;;;;;4.07;1.95;;;24.70;64.70;;;;;;4159945;28;20205;-51
2020/12/15 01:00:38;;;;;;;3.95;2.13;;;24.70;64.50;;;;;;4165914;28;20032;-46
2020/12/15 01:02:41;;;;;;;5.00;1.70;;;24.70;64.60;;;;;;4168356;28;20061;-45
2020/12/15 01:04:43;;;;;;;5.53;2.00;;;24.70;64.30;;;;;;4166658;28;20137;-48
2020/12/15 01:06:49;;;;;;;6.13;2.15;;;24.70;64.10;;;;;;4168804;28;20273;-46
2020/12/15 01:08:51;;;;;;;5.43;2.03;;;24.80;64.20;;;;;;4167655;28;20187;-46
2020/12/15 01:10:54;;;;;;;7.28;2.17;;;24.80;64.00;;;;;;4172050;28;20041;-50
2020/12/15 01:12:56;;;;;;;5.20;2.05;;;24.70;64.90;;;;;;4165391;28;20048;-45
2020/12/15 01:14:58;;;;;;;3.22;2.17;;;24.80;64.40;;;;;;4172335;28;20032;-48
2020/12/15 01:17:00;;;;;;;5.35;2.10;;;24.80;64.50;;;;;;4167382;28;20102;-47
2020/12/15 01:19:02;;;;;;;4.32;2.03;;;24.80;64.60;;;;;;4165670;28;20380;-53
2020/12/15 01:21:05;;;;;;;4.97;1.90;;;24.80;64.70;;;;;;4161046;28;20116;-50
2020/12/15 01:23:07;;;;;;;6.13;2.40;;;24.80;64.90;;;;;;4155779;28;20414;-50
2020/12/15 01:25:09;;;;;;;5.85;2.22;;;24.80;64.80;;;;;;4160038;28;20581;-48
2020/12/15 01:27:11;;;;;;;6.13;2.00;;;24.90;64.60;;;;;;4158279;28;20442;-49
2020/12/15 01:29:13;;;;;;;5.55;2.38;;;24.90;64.90;;;;;;4158080;28;20026;-49
2020/12/15 01:31:22;;;;;;;6.60;2.60;;;24.90;64.70;;;;;;4154658;28;20068;-51
2020/12/15 01:33:24;;;;;;;5.50;2.10;;;24.90;65.20;;;;;;4152012;28;20045;-53
2020/12/15 01:35:26;;;;;;;6.68;2.47;;;24.90;65.00;;;;;;4167060;28;20036;-50
2020/12/15 01:37:28;;;;;;;5.40;2.30;;;24.90;64.90;;;;;;4153982;28;20032;-48
2020/12/15 01:39:30;;;;;;;7.03;2.63;;;25.00;64.90;;;;;;4162532;28;20113;-49
2020/12/15 01:41:32;;;;;;;9.17;2.87;;;25.00;64.90;;;;;;4154647;28;20589;-47
2020/12/15 01:43:35;;;;;;;5.70;2.40;;;25.00;64.60;;;;;;4161869;28;20067;-51
2020/12/15 01:45:37;;;;;;;6.63;2.47;;;25.00;64.70;;;;;;4158895;28;20036;-47
2020/12/15 01:47:39;;;;;;;6.63;2.10;;;25.00;64.40;;;;;;4162989;28;20110;-49
2020/12/15 01:49:42;;;;;;;6.78;2.53;;;25.00;64.70;;;;;;4158179;28;20048;-49
2020/12/15 01:51:46;;;;;;;5.38;2.10;;;25.00;64.70;;;;;;4152388;28;20364;-50
2020/12/15 01:53:48;;;;;;;8.75;2.95;;;25.00;64.50;;;;;;4158629;28;20399;-49
2020/12/15 01:55:50;;;;;;;9.15;2.92;;;25.00;64.70;;;;;;4159840;28;20052;-46
2020/12/15 01:57:53;;;;;;;7.53;2.83;;;25.10;64.70;;;;;;4156730;28;20033;-50
2020/12/15 01:59:55;;;;;;;8.23;2.70;;;25.10;64.90;;;;;;4162178;28;20399;-50
2020/12/15 02:01:57;;;;;;;8.55;2.60;;;25.20;65.50;;;;;;4157840;28;20423;-51
2020/12/15 02:03:59;;;;;;;6.53;2.60;;;25.10;65.90;;;;;;4150856;28;20037;-52
2020/12/15 02:06:01;;;;;;;7.82;2.63;;;25.20;65.70;;;;;;4162558;28;20051;-49
2020/12/15 02:08:03;;;;;;;8.23;2.80;;;25.20;65.60;;;;;;4156983;28;20503;-49
2020/12/15 02:10:06;;;;;;;10.52;2.95;;;25.20;65.90;;;;;;4156250;28;20057;-49
2020/12/15 02:12:08;;;;;;;6.63;2.38;;;25.30;65.80;;;;;;4153185;28;20447;-50
2020/12/15 02:14:11;;;;;;;6.87;2.47;;;25.30;65.70;;;;;;4159778;28;20100;-48
2020/12/15 02:16:14;;;;;;;8.90;3.03;;;25.30;65.70;;;;;;4158593;28;20120;-49
2020/12/15 02:18:16;;;;;;;7.28;2.83;;;25.30;65.60;;;;;;4160480;28;20143;-50
2020/12/15 02:20:19;;;;;;;6.07;2.20;;;25.30;65.20;;;;;;4165595;28;20608;-48
2020/12/15 02:22:21;;;;;;;7.68;2.85;;;25.30;65.10;;;;;;4171340;28;20150;-51
2020/12/15 02:24:24;;;;;;;4.95;1.98;;;25.30;64.90;;;;;;4159950;28;20032;-51
2020/12/15 02:26:26;;;;;;;6.35;2.17;;;25.40;64.60;;;;;;4162125;28;20040;-53
2020/12/15 02:28:28;;;;;;;6.03;1.90;;;25.40;64.50;;;;;;4165644;28;20033;-50
2020/12/15 02:30:31;;;;;;;5.93;2.20;;;25.40;64.30;;;;;;4172319;28;20107;-52
2020/12/15 02:32:36;;;;;;;5.97;2.20;;;25.40;64.30;;;;;;4163125;28;20026;-51
2020/12/15 02:34:39;;;;;;;7.22;2.15;;;25.40;64.50;;;;;;4161409;28;20044;-49
2020/12/15 02:36:42;;;;;;;6.00;2.00;;;25.40;64.00;;;;;;4171221;28;20033;-51
2020/12/15 02:38:44;;;;;;;4.65;1.95;;;25.50;64.10;;;;;;4166726;28;20113;-46
2020/12/15 02:40:46;;;;;;;5.13;2.13;;;25.50;64.10;;;;;;4160007;28;20037;-46
2020/12/15 02:42:48;;;;;;;6.03;2.30;;;25.50;64.20;;;;;;4161907;28;20052;-49
2020/12/15 02:44:50;;;;;;;4.70;2.00;;;25.50;64.40;;;;;;4167772;28;20014;-50
2020/12/15 02:46:53;;;;;;;5.53;2.22;;;25.50;64.30;;;;;;4164155;28;20563;-49
2020/12/15 02:48:56;;;;;;;8.20;2.57;;;25.50;64.30;;;;;;4164661;28;20456;-48
2020/12/15 02:50:58;;;;;;;6.15;2.60;;;25.50;64.30;;;;;;4165079;28;20044;-50
2020/12/15 02:53:00;;;;;;;5.97;2.42;;;25.50;64.40;;;;;;4171589;28;20094;-50
2020/12/15 02:55:02;;;;;;;5.22;2.10;;;25.50;64.20;;;;;;4163842;28;20272;-47
2020/12/15 02:57:04;;;;;;;6.10;2.35;;;25.60;64.40;;;;;;4173441;28;20040;-50
2020/12/15 02:59:07;;;;;;;5.50;2.10;;;25.60;64.40;;;;;;4161661;28;20397;-49
2020/12/15 03:01:09;;;;;;;7.80;2.95;;;25.60;64.30;;;;;;4169267;28;20041;-50
2020/12/15 03:03:11;;;;;;;6.53;2.33;;;25.60;64.30;;;;;;4164571;28;20048;-52
2020/12/15 03:05:13;;;;;;;5.55;2.58;;;25.70;64.30;;;;;;4166043;28;20566;-53
2020/12/15 03:07:15;;;;;;;7.65;2.33;;;25.60;64.30;;;;;;4170452;28;20101;-48
2020/12/15 03:09:17;;;;;;;7.07;2.80;;;25.70;64.40;;;;;;4164998;28;20025;-50
2020/12/15 03:11:22;;;;;;;6.33;2.47;;;25.70;64.30;;;;;;4169462;28;20037;-51
2020/12/15 03:13:25;;;;;;;6.35;2.35;;;25.70;64.20;;;;;;4160906;28;20282;-46
2020/12/15 03:15:27;;;;;;;7.70;2.38;;;25.70;64.10;;;;;;4163531;28;20087;-50
2020/12/15 03:17:29;;;;;;;6.57;2.28;;;25.80;64.10;;;;;;4168299;28;20112;-52
2020/12/15 03:19:31;;;;;;;9.15;3.03;;;25.80;64.10;;;;;;4172416;28;20107;-50
2020/12/15 03:21:35;;;;;;;5.40;2.30;;;25.80;64.20;;;;;;4159326;28;20056;-50
2020/12/15 03:23:37;;;;;;;7.47;2.65;;;25.80;64.40;;;;;;4174841;28;20024;-49
2020/12/15 03:25:40;;;;;;;6.53;2.17;;;25.80;64.50;;;;;;4162251;28;20435;-47
2020/12/15 03:27:42;;;;;;;7.25;2.33;;;25.70;64.30;;;;;;4163428;28;20041;-48
2020/12/15 03:29:44;;;;;;;7.68;2.72;;;25.80;64.10;;;;;;4161006;28;20048;-50
2020/12/15 03:31:46;;;;;;;8.75;2.35;;;25.80;63.90;;;;;;4172294;28;20029;-51
2020/12/15 03:33:48;;;;;;;4.60;1.90;;;25.80;63.90;;;;;;4165257;28;20063;-51
2020/12/15 03:35:50;;;;;;;7.40;2.20;;;25.80;63.70;;;;;;4162796;28;20029;-50
2020/12/15 03:37:52;;;;;;;5.43;2.03;;;25.80;63.70;;;;;;4165021;28;20048;-47
2020/12/15 03:39:54;;;;;;;6.22;2.33;;;25.80;63.80;;;;;;4168741;28;20039;-52
2020/12/15 03:41:56;;;;;;;5.50;2.00;;;25.80;63.70;;;;;;4165213;28;20535;-51
2020/12/15 03:43:59;;;;;;;6.72;2.20;;;25.80;63.70;;;;;;4162916;28;20495;-53
2020/12/15 03:46:01;;;;;;;7.15;2.22;;;25.80;63.70;;;;;;4162646;28;20032;-51
2020/12/15 03:48:03;;;;;;;6.90;2.13;;;25.80;63.80;;;;;;4163531;28;20068;-51
2020/12/15 03:50:08;;;;;;;4.18;2.20;;;25.80;63.70;;;;;;4167303;28;20020;-50
2020/12/15 03:52:10;;;;;;;4.93;1.80;;;25.80;63.70;;;;;;4164708;28;20430;-51
2020/12/15 03:54:13;;;;;;;5.30;2.17;;;25.80;63.70;;;;;;4168641;28;20043;-52
2020/12/15 03:56:15;;;;;;;3.00;1.58;;;25.80;63.60;;;;;;4166625;28;20155;-47
2020/12/15 03:58:18;;;;;;;6.63;2.05;;;25.80;63.60;;;;;;4167248;28;20171;-52
2020/12/15 04:00:21;;;;;;;7.50;2.17;;;25.80;63.60;;;;;;4161814;28;20084;-51
2020/12/15 04:02:23;;;;;;;5.18;1.83;;;25.90;63.90;;;;;;4165296;28;20127;-54
2020/12/15 04:04:25;;;;;;;4.22;1.77;;;25.80;63.90;;;;;;4159804;28;20041;-51
2020/12/15 04:06:27;;;;;;;6.95;2.30;;;25.80;63.90;;;;;;4169254;28;20068;-53
2020/12/15 04:08:29;;;;;;;6.03;2.50;;;25.80;64.00;;;;;;4161754;28;20052;-48
2020/12/15 04:10:31;;;;;;;5.13;2.08;;;25.80;64.00;;;;;;4165829;28;20071;-53
2020/12/15 04:12:34;;;;;;;6.88;2.42;;;25.80;64.10;;;;;;4161380;28;20849;-53
2020/12/15 04:14:36;;;;;;;6.30;2.10;;;25.80;64.10;;;;;;4165660;28;20033;-52
2020/12/15 04:16:38;;;;;;;5.10;2.28;;;25.80;64.20;;;;;;4159049;28;20549;-51
2020/12/15 04:18:40;;;;;;;6.38;2.83;;;25.80;64.20;;;;;;4167985;28;20529;-49
2020/12/15 04:20:42;;;;;;;7.22;2.63;;;25.80;64.30;;;;;;4165116;28;20115;-49
2020/12/15 04:22:44;;;;;;;7.38;2.72;;;25.90;64.50;;;;;;4165906;28;20357;-48
2020/12/15 04:24:46;;;;;;;7.20;2.70;;;25.90;64.60;;;;;;4161466;28;20045;-50
2020/12/15 04:26:48;;;;;;;7.65;2.58;;;25.90;64.60;;;;;;4165728;28;20120;-50
2020/12/15 04:28:50;;;;;;;5.28;2.35;;;25.90;64.40;;;;;;4163112;28;20112;-48
2020/12/15 04:30:52;;;;;;;6.85;2.17;;;25.90;64.30;;;;;;4173368;28;20044;-50
2020/12/15 04:32:55;;;;;;;5.90;2.33;;;25.80;64.40;;;;;;4165158;28;20036;-51
2020/12/15 04:34:57;;;;;;;6.82;2.55;;;25.90;64.30;;;;;;4160965;28;20069;-53
2020/12/15 04:36:59;;;;;;;6.35;2.53;;;25.90;64.30;;;;;;4167891;28;20138;-51
2020/12/15 04:39:01;;;;;;;10.27;2.75;;;25.90;64.50;;;;;;4162571;28;20132;-51
2020/12/15 04:41:04;;;;;;;5.38;2.63;;;25.90;64.40;;;;;;4164167;28;20032;-48
2020/12/15 04:43:09;;;;;;;9.43;2.72;;;25.90;64.30;;;;;;4158682;28;20228;-52
2020/12/15 04:45:11;;;;;;;7.97;2.42;;;25.90;64.50;;;;;;4164769;28;20051;-48
2020/12/15 04:47:18;;;;;;;6.50;2.65;;;25.90;64.40;;;;;;4161564;28;20041;-47
2020/12/15 04:49:24;;;;;;;8.98;2.60;;;25.90;64.60;;;;;;4166707;28;20025;-50
2020/12/15 04:51:28;;;;;;;6.15;2.70;;;25.90;64.70;;;;;;4163067;28;20057;-48
2020/12/15 04:53:34;;;;;;;5.90;2.85;;;25.90;64.40;;;;;;4167092;28;20922;-47
2020/12/15 04:55:37;;;;;;;6.18;2.55;;;25.90;64.70;;;;;;4166926;28;20125;-48
2020/12/15 04:57:40;;;;;;;6.43;2.30;;;25.90;64.70;;;;;;4160512;28;20048;-49
2020/12/15 04:59:44;;;;;;;11.93;3.08;;;25.90;64.70;;;;;;4164801;28;20032;-46
2020/12/15 05:01:49;;;;;;;7.90;2.58;;;26.00;64.80;;;;;;4165217;28;20048;-49
2020/12/15 05:03:53;;;;;;;6.15;2.35;;;26.00;64.80;;;;;;4158071;28;20047;-49
2020/12/15 05:05:55;;;;;;;6.97;2.22;;;26.00;65.20;;;;;;4168455;28;20486;-49
2020/12/15 05:08:02;;;;;;;7.32;2.85;;;26.00;64.40;;;;;;4160585;28;20298;-49
2020/12/15 05:10:04;;;;;;;5.53;2.17;;;26.00;65.20;;;;;;4158973;28;20486;-54
2020/12/15 05:12:06;;;;;;;6.70;2.03;;;26.00;64.40;;;;;;4166334;28;20077;-51
2020/12/15 05:14:09;;;;;;;4.72;1.80;;;26.00;64.20;;;;;;4161200;28;20044;-51
2020/12/15 05:16:11;;;;;;;4.88;2.03;;;;;;;;;;4171329;28;20057;-47
2020/12/15 05:18:20;;;;;;;7.68;2.42;;;;;;;;;;4162149;28;20018;-48
2020/12/15 05:20:28;;;;;;;5.32;2.00;;;;;;;;;;4164042;28;20047;-51
2020/12/15 05:22:49;;;;;;;5.55;2.20;;;26.00;65.00;;;;;;4164423;28;20250;-48
2020/12/15 05:24:51;;;;;;;5.50;2.60;;;26.10;64.10;;;;;;4166520;28;20463;-48
2020/12/15 05:26:56;;;;;;;4.97;2.15;;;26.10;64.50;;;;;;4169221;28;20456;-49
2020/12/15 05:29:08;;;;;;;5.78;2.50;;;26.10;64.50;;;;;;4162774;28;20040;-50
2020/12/15 05:31:14;;;;;;;6.43;1.95;;;26.10;64.50;;;;;;4161474;28;20041;-49
2020/12/15 05:33:17;;;;;;;6.03;2.20;;;26.10;64.30;;;;;;4162765;28;20025;-49
2020/12/15 05:35:30;;;;;;;7.35;2.28;;;26.10;64.50;;;;;;4175458;28;20021;-48
2020/12/15 05:37:32;;;;;;;5.20;2.20;;;26.10;64.50;;;;;;4165138;28;20033;-52
2020/12/15 05:39:34;;;;;;;6.57;2.42;;;26.10;64.40;;;;;;4166647;28;20585;-51
2020/12/15 05:41:36;;;;;;;6.78;2.42;;;26.10;64.40;;;;;;4166146;28;20033;-49
2020/12/15 05:43:40;;;;;;;5.70;2.42;;;26.10;64.40;;;;;;4163724;28;20092;-49
2020/12/15 05:45:50;;;;;;;7.00;2.55;;;26.10;64.40;;;;;;4163901;28;20755;-52
2020/12/15 05:48:01;;;;;;;7.32;2.40;;;26.10;64.50;;;;;;4162156;28;20037;-52
2020/12/15 05:50:03;;;;;;;10.38;2.47;;;26.10;64.50;;;;;;4166357;28;20067;-54
2020/12/15 05:52:09;;;;;;;6.43;2.50;;;26.10;64.60;;;;;;4157652;28;20045;-52
2020/12/15 05:54:13;;;;;;;6.28;2.45;;;26.20;64.60;;;;;;4158749;28;20120;-47
2020/12/15 05:56:21;;;;;;;6.50;2.15;;;26.10;64.30;;;;;;4160528;28;20033;-54
2020/12/15 05:58:23;;;;;;;6.93;2.85;;;26.10;64.30;;;;;;4155269;28;20072;-47
2020/12/15 06:00:27;;;;;;;5.40;1.93;;;26.20;64.50;;;;;;4157065;28;20123;-51
2020/12/15 06:02:29;;;;;;;4.38;1.80;;;26.10;64.20;;;;;;4158902;28;20357;-51
2020/12/15 06:04:33;;;;;;;5.78;1.98;;;26.10;64.10;;;;;;4154625;28;20514;-47
2020/12/15 06:06:38;;;;;;;5.15;2.13;;;26.20;64.20;;;;;;4161059;28;20034;-51
2020/12/15 06:08:42;;;;;;;4.60;1.80;;;26.20;64.20;;;;;;4161573;28;20025;-52
2020/12/15 06:10:49;;;;;;;7.45;2.08;;;26.20;64.40;;;;;;4166045;28;20477;-54
2020/12/15 06:12:52;;;;;;;6.25;2.20;;;26.20;64.40;;;;;;4163094;28;20080;-52
2020/12/15 06:14:53;;;;;;;;;;;26.20;64.40;;;;;;4166796;28;20459;-48
2020/12/15 06:16:56;;;;;;;4.18;2.20;;;26.20;64.50;;;;;;4167557;28;20448;-53
2020/12/15 06:18:58;;;;;;;5.57;1.90;;;26.20;64.50;;;;;;4165098;28;20861;-47
2020/12/15 06:21:07;;;;;;;7.32;2.42;;;26.20;64.30;;;;;;4170217;28;20043;-50
2020/12/15 06:23:10;;;;;;;6.82;2.13;;;26.20;64.30;;;;;;4168148;28;20041;-47
2020/12/15 06:25:12;;;;;;;6.53;2.38;;;26.20;64.30;;;;;;4179935;28;20478;-46
2020/12/15 06:27:15;;;;;;;6.65;2.42;;;26.20;64.50;;;;;;4160598;28;20139;-47
2020/12/15 06:29:31;;;;;;;7.70;2.80;;;26.20;64.60;;;;;;4170916;28;20033;-52
2020/12/15 06:31:35;;;;;;;7.30;2.60;;;26.20;64.70;;;;;;4166681;28;20064;-48
2020/12/15 06:33:37;;;;;;;5.85;2.60;;;26.20;64.50;;;;;;4157360;28;20052;-49
2020/12/15 06:35:39;;;;;;;5.97;2.50;;;26.20;64.60;;;;;;4174016;28;20448;-48
2020/12/15 06:37:42;;;;;;;6.55;2.30;;;26.20;64.70;;;;;;4158675;28;20124;-53
2020/12/15 06:40:02;;;;;;;6.97;2.47;;;26.20;64.70;;;;;;4161775;28;20127;-53
2020/12/15 06:42:07;;;;;;;8.70;3.00;;;26.20;64.70;;;;;;4161331;28;20045;-50
2020/12/15 06:44:09;;;;;;;9.48;2.83;;;26.20;64.60;;;;;;4158193;28;20125;-50
2020/12/15 06:46:12;;;;;;;9.55;3.20;;;26.20;65.50;;;;;;4160850;28;20037;-50
2020/12/15 06:48:14;;;;;;;8.93;2.60;;;26.20;64.80;;;;;;4164428;28;20115;-47
2020/12/15 06:50:18;;;;;;;6.60;2.67;;;26.20;64.90;;;;;;4165918;28;20044;-50
2020/12/15 06:52:28;;;;;;;7.07;2.40;;;26.20;65.10;;;;;;4165236;28;20071;-51
2020/12/15 06:54:31;;;;;;;7.20;2.47;;;26.20;64.70;;;;;;4165693;28;20045;-46
2020/12/15 06:56:37;;;;;;;5.03;2.20;;;26.20;64.70;;;;;;4167543;28;20051;-49
2020/12/15 06:58:39;;;;;;;6.97;2.38;;;26.20;64.90;;;;;;4160737;28;20043;-49
2020/12/15 07:00:42;;;;;;;5.97;2.47;;;26.20;64.90;;;;;;4155172;28;20130;-52
2020/12/15 07:02:51;;;;;;;6.22;2.33;;;26.20;65.30;;;;;;4166283;28;20550;-51
2020/12/15 07:05:11;;;;;;;4.78;2.10;;;26.20;64.60;;;;;;4160383;28;20108;-52
2020/12/15 07:07:16;;;;;;;5.75;2.17;;;26.20;64.60;;;;;;4171996;28;20103;-51
2020/12/15 07:09:21;;;;;;;4.93;1.90;;;26.20;64.50;;;;;;4164171;28;20491;-50
2020/12/15 07:11:27;;;;;;;5.50;2.10;;;26.20;64.50;;;;;;4163888;28;20037;-52
2020/12/15 07:13:30;;;;;;;4.00;1.60;;;26.20;64.40;;;;;;4161958;28;20306;-53
2020/12/15 07:15:34;;;;;;;4.88;2.08;;;26.20;64.40;;;;;;4166934;28;20041;-49
2020/12/15 07:17:37;;;;;;;7.07;2.17;;;26.20;64.50;;;;;;4165151;28;20036;-54
2020/12/15 07:19:40;;;;;;;7.45;1.95;;;26.20;64.20;;;;;;4164539;28;20032;-46
2020/12/15 07:21:41;;;;;;;;;;;26.20;64.30;;;;;;4171263;28;20045;-50
2020/12/15 07:23:44;;;;;;;7.43;2.70;;;26.20;64.10;;;;;;4161390;28;20346;-53
2020/12/15 07:25:46;;;;;;;5.87;2.10;;;26.20;64.30;;;;;;4169233;28;20048;-47
2020/12/15 07:27:48;;;;;;;7.85;2.78;;;26.20;63.90;;;;;;4158343;28;20314;-46
2020/12/15 07:29:57;;;;;;;7.07;2.30;;;26.20;64.40;;;;;;4170534;28;20052;-49
2020/12/15 07:31:59;;;;;;;9.77;2.30;;;26.20;64.50;;;;;;4161177;28;20155;-49
2020/12/15 07:34:12;;;;;;;5.10;1.80;;;26.20;64.50;;;;;;4165574;28;20577;-49
2020/12/15 07:36:17;;;;;;;6.65;2.53;;;26.20;63.80;;;;;;4162697;28;20083;-49
2020/12/15 07:38:21;;;;;;;7.13;2.55;;;26.20;63.90;;;;;;4168195;28;20036;-50
2020/12/15 07:40:28;;;;;;;7.28;3.00;;;26.20;64.60;;;;;;4161958;28;20026;-47
2020/12/15 07:42:31;;;;;;;8.27;2.78;;;26.20;64.30;;;;;;4159882;28;20094;-49
2020/12/15 07:44:33;;;;;;;9.43;2.83;;;26.20;64.40;;;;;;4164630;28;20125;-48
2020/12/15 07:46:35;;;;;;;7.57;2.75;;;26.20;64.10;;;;;;4162726;28;20431;-50
2020/12/15 07:48:38;;;;;;;7.28;2.42;;;26.20;64.50;;;;;;4166514;28;20051;-51
2020/12/15 07:50:40;;;;;;;5.88;2.28;;;26.20;64.70;;;;;;4169105;28;20032;-50
2020/12/15 07:52:43;;;;;;;7.53;2.73;;;26.20;64.30;;;;;;4169008;28;20120;-50
2020/12/15 07:54:45;;;;;;;8.02;2.60;;;26.20;64.30;;;;;;4165406;28;20120;-47
2020/12/15 07:56:49;;;;;;;9.20;2.90;;;26.20;64.50;;;;;;4171926;28;20080;-47
2020/12/15 07:58:53;;;;;;;6.35;2.30;;;26.20;63.70;;;;;;4172507;28;20100;-51
2020/12/15 08:00:56;;;;;;;4.40;2.15;;;26.20;64.20;;;;;;4167370;28;20037;-50
2020/12/15 08:03:04;;;;;;;6.30;2.50;;;26.20;63.80;;;;;;4166730;28;20170;-49
2020/12/15 08:05:20;;;;;;;5.70;2.55;;;26.20;64.90;;;;;;4169874;28;20032;-52
2020/12/15 08:07:24;;;;;;;8.65;2.83;;;26.20;63.80;;;;;;4160009;28;20041;-51
2020/12/15 08:09:26;;;;;;;5.57;2.20;;;26.20;64.10;;;;;;4156545;28;20053;-52
2020/12/15 08:11:29;;;;;;;6.50;2.58;;;26.20;63.90;;;;;;4159243;28;20644;-51
2020/12/15 08:13:31;;;;;;;9.38;2.70;;;26.20;63.40;;;;;;4161209;28;20127;-53
2020/12/15 08:15:41;;;;;;;6.40;2.10;;;26.20;64.30;;;;;;4159610;28;20491;-48
2020/12/15 08:17:46;;;;;;;7.00;2.53;;;26.20;63.80;;;;;;4165711;28;20542;-53
2020/12/15 08:19:49;;;;;;;8.73;2.45;;;26.20;64.50;;;;;;4158227;28;20039;-48
2020/12/15 08:21:51;;;;;;;6.70;2.55;;;26.20;64.20;;;;;;4159402;28;20995;-50
2020/12/15 08:23:57;;;;;;;6.53;2.38;;;26.20;63.70;;;;;;4159212;28;20033;-52
2020/12/15 08:26:00;;;;;;;6.65;2.35;;;26.20;64.20;;;;;;4159604;28;20070;-51
2020/12/15 08:28:22;;;;;;;5.90;2.53;;;26.20;63.60;;;;;;4157718;28;20033;-52
2020/12/15 08:30:24;;;;;;;5.13;2.45;;;26.20;64.00;;;;;;4162562;28;20726;-51
2020/12/15 08:32:31;;;;;;;8.65;2.83;;;26.20;64.20;;;;;;4169821;28;20030;-49
2020/12/15 08:34:33;;;;;;;5.85;2.30;;;26.20;63.80;;;;;;4160538;28;20084;-46
2020/12/15 08:36:42;;;;;;;5.97;2.15;;;26.20;63.90;;;;;;4164078;28;20395;-51
2020/12/15 08:38:44;;;;;;;6.90;2.70;;;26.20;63.80;;;;;;4168672;28;20777;-50
2020/12/15 08:40:56;;;;;;;8.32;2.58;;;26.20;63.70;;;;;;4160642;28;20101;-50
2020/12/15 08:43:03;;;;;;;5.45;2.65;;;26.20;63.80;;;;;;4165962;28;20053;-54
2020/12/15 08:45:14;;;;;;;6.35;2.83;;;26.20;64.50;;;;;;4161347;28;20517;-53
2020/12/15 08:47:19;;;;;;;7.38;2.60;;;26.20;64.30;;;;;;4164711;28;20063;-48
2020/12/15 08:49:22;;;;;;;5.75;2.35;;;26.20;64.20;;;;;;4161615;28;20095;-48
2020/12/15 08:51:26;;;;;;;5.50;2.13;;;26.20;64.00;;;;;;4152414;28;20978;-51
2020/12/15 08:53:32;;;;;;;7.38;2.97;;;26.20;64.10;;;;;;4157782;28;20820;-51
2020/12/15 08:55:35;;;;;;;7.05;2.55;;;26.20;64.20;;;;;;4161914;28;20502;-53
2020/12/15 08:57:38;;;;;;;5.95;2.92;;;26.20;64.30;;;;;;4160984;28;20521;-51
2020/12/15 08:59:41;;;;;;;6.60;2.47;;;26.20;65.00;;;;;;4166144;28;20108;-54
2020/12/15 09:01:44;;;;;;;6.22;2.58;;;26.20;64.50;;;;;;4160308;28;20507;-48
2020/12/15 09:03:49;;;;;;;6.05;2.50;;;26.20;65.20;;;;;;4162921;28;20576;-53
2020/12/15 09:05:53;;;;;;;6.78;2.90;;;26.20;64.70;;;;;;4164099;28;20055;-55
2020/12/15 09:08:05;;;;;;;7.35;3.10;;;26.20;65.60;;;;;;4168637;28;20502;-53
2020/12/15 09:10:10;;;;;;;7.35;2.88;;;26.20;65.40;;;;;;4164087;28;20380;-49
2020/12/15 09:12:12;;;;;;;5.97;2.42;;;26.20;66.40;;;;;;4161592;28;20032;-51
2020/12/15 09:14:19;;;;;;;5.32;2.10;;;26.20;65.30;;;;;;4161135;28;20654;-51
2020/12/15 09:16:34;;;;;;;5.75;2.60;;;26.20;65.40;;;;;;4161367;28;20036;-51
2020/12/15 09:18:38;;;;;;;7.07;2.28;;;26.20;65.50;;;;;;4166263;28;20037;-52
2020/12/15 09:20:40;;;;;;;5.43;2.33;;;26.20;65.60;;;;;;4161354;28;20034;-55
2020/12/15 09:22:43;;;;;;;6.90;2.10;;;26.20;65.60;;;;;;4159102;28;20068;-51
2020/12/15 09:24:46;;;;;;;5.90;2.03;;;26.20;64.90;;;;;;4158015;28;20037;-51
2020/12/15 09:26:48;;;;;;;5.72;2.20;;;26.20;65.40;;;;;;4165287;28;20036;-50
2020/12/15 09:28:51;;;;;;;7.67;2.50;;;26.20;65.30;;;;;;4159116;28;20070;-49
2020/12/15 09:30:53;;;;;;;4.40;2.00;;;26.20;64.90;;;;;;4157106;28;20041;-51
2020/12/15 09:32:56;;;;;;;4.43;1.60;;;26.20;65.00;;;;;;4160561;28;20398;-52
2020/12/15 09:34:58;;;;;;;3.83;1.73;;;26.20;64.80;;;;;;4167481;28;20045;-52
2020/12/15 09:37:04;;;;;;;5.57;1.90;;;26.20;64.40;;;;;;4151619;28;21073;-49
2020/12/15 09:39:06;;;;;;;4.68;1.98;;;26.20;64.40;;;;;;4161611;28;20094;-50
2020/12/15 09:41:09;;;;;;;4.22;1.95;;;26.20;64.60;;;;;;4158044;28;20544;-53
2020/12/15 09:43:11;;;;;;;4.60;1.90;;;26.20;64.70;;;;;;4161331;28;20553;-54
2020/12/15 09:45:14;;;;;;;8.35;2.42;;;26.10;64.60;;;;;;4156499;28;20034;-51
2020/12/15 09:47:16;;;;;;;7.25;2.28;;;26.10;64.60;;;;;;4169511;28;20494;-49
2020/12/15 09:49:18;;;;;;;4.88;2.28;;;26.10;64.60;;;;;;4164300;28;20037;-53
2020/12/15 09:51:20;;;;;;;5.05;2.40;;;26.10;64.60;;;;;;4165700;28;20233;-52
2020/12/15 09:53:22;;;;;;;5.88;1.98;;;26.10;64.80;;;;;;4164113;28;20025;-52
2020/12/15 09:55:24;;;;;;;5.35;1.95;;;26.10;64.90;;;;;;4169713;28;20041;-52
2020/12/15 09:57:27;;;;;;;4.50;1.83;;;26.10;64.90;;;;;;4162551;28;20080;-52
2020/12/15 09:59:29;;;;;;;6.13;2.55;;;26.10;64.80;;;;;;4164342;28;20053;-52
2020/12/15 10:01:31;;;;;;;5.53;2.10;;;26.10;64.80;;;;;;4160047;28;20069;-50
2020/12/15 10:03:33;;;;;;;5.47;2.30;;;26.10;65.00;;;;;;4162785;28;20045;-53
2020/12/15 10:05:35;;;;;;;6.90;2.50;;;26.10;65.10;;;;;;4167139;28;20051;-54
2020/12/15 10:07:41;;;;;;;6.07;2.45;;;26.10;65.20;;;;;;4170696;28;20041;-51
2020/12/15 10:09:43;;;;;;;5.95;2.30;;;26.10;65.10;;;;;;4167480;28;20125;-53
2020/12/15 10:11:45;;;;;;;5.60;2.22;;;26.10;65.30;;;;;;4165183;28;20030;-54
2020/12/15 10:13:47;;;;;;;5.95;2.13;;;26.10;65.20;;;;;;4163581;28;20041;-53
2020/12/15 10:15:49;;;;;;;6.53;2.23;;;26.10;65.30;;;;;;4164590;28;20360;-47
2020/12/15 10:17:51;;;;;;;6.65;2.83;;;26.10;65.50;;;;;;4162340;28;20044;-53
2020/12/15 10:19:54;;;;;;;5.85;2.35;;;26.10;65.30;;;;;;4163593;28;20041;-48
2020/12/15 10:21:56;;;;;;;6.25;2.35;;;26.10;65.50;;;;;;4163012;28;20041;-52
2020/12/15 10:23:58;;;;;;;6.00;2.90;;;26.10;65.30;;;;;;4160656;28;20045;-50
2020/12/15 10:26:01;;;;;;;4.65;2.20;;;26.10;65.50;;;;;;4164100;28;20096;-51
2020/12/15 10:28:03;;;;;;;6.60;2.67;;;26.10;65.40;;;;;;4168970;28;20103;-53
2020/12/15 10:30:06;;;;;;;8.75;2.97;;;26.10;65.40;;;;;;4157510;28;20042;-51
2020/12/15 10:32:08;;;;;;;7.67;2.67;;;26.00;65.50;;;;;;4166571;28;20120;-49
2020/12/15 10:34:10;;;;;;;6.85;2.70;;;26.00;65.40;;;;;;4162890;28;20131;-52
2020/12/15 10:36:13;;;;;;;6.28;2.28;;;26.00;65.50;;;;;;4161151;28;20116;-53
2020/12/15 10:38:15;;;;;;;;;;;26.00;65.60;;;;;;4165852;28;20036;-50
2020/12/15 10:40:17;;;;;;;6.78;2.50;;;26.00;65.60;;;;;;4158711;28;19921;-48
2020/12/15 10:42:19;;;;;;;7.15;2.58;;;26.00;65.60;;;;;;4165899;28;20039;-51
2020/12/15 10:44:21;;;;;;;4.85;2.30;;;26.00;65.80;;;;;;4163467;28;20029;-52